createdAt,value
2022-12-19T00:00:17.028Z,34.40
2022-12-19T00:03:05.967Z,34.07
2022-12-19T00:05:44.199Z,38.13
2022-12-19T00:08:17.355Z,39.40
2022-12-19T00:10:56.220Z,34.13
2022-12-19T00:13:26.647Z,37.73
2022-12-19T00:15:59.989Z,41.37
2022-12-19T00:18:28.729Z,37.35
2022-12-19T00:20:59.977Z,36.10
2022-12-19T00:23:31.035Z,33.93
2022-12-19T00:26:09.697Z,38.87
2022-12-19T00:28:39.043Z,38.90
2022-12-19T00:31:08.312Z,33.87
2022-12-19T00:33:43.514Z,32.40
2022-12-19T00:36:24.286Z,39.37
2022-12-19T00:38:57.914Z,33.00
2022-12-19T00:41:35.392Z,38.50
2022-12-19T00:44:10.203Z,36.90
2022-12-19T00:46:39.180Z,33.70
2022-12-19T00:49:07.975Z,36.43
2022-12-19T00:51:37.877Z,35.80
2022-12-19T00:54:12.359Z,35.83
2022-12-19T00:56:41.916Z,34.60
2022-12-19T00:59:11.008Z,32.57
2022-12-19T01:01:42.053Z,32.80
2022-12-19T01:04:28.256Z,40.77
2022-12-19T01:07:01.921Z,36.13
2022-12-19T01:09:35.229Z,36.47
2022-12-19T01:12:33.873Z,36.17
2022-12-19T01:15:04.888Z,38.53
2022-12-19T01:17:37.026Z,45.67
2022-12-19T01:20:19.111Z,46.30
2022-12-19T01:23:00.513Z,37.63
2022-12-19T01:25:29.636Z,38.67
2022-12-19T01:27:58.517Z,40.43
2022-12-19T01:30:29.175Z,47.70
2022-12-19T01:33:00.846Z,43.73
2022-12-19T01:35:29.797Z,42.23
2022-12-19T01:38:06.569Z,48.37
2022-12-19T01:40:48.114Z,42.50
2022-12-19T01:43:17.598Z,43.60
2022-12-19T01:45:50.844Z,44.20
2022-12-19T01:48:28.365Z,42.03
2022-12-19T01:51:01.371Z,48.47
2022-12-19T01:53:46.438Z,46.30
2022-12-19T01:56:29.201Z,43.17
2022-12-19T01:59:06.511Z,46.47
2022-12-19T02:01:51.011Z,48.30
2022-12-19T02:04:24.893Z,46.73
2022-12-19T02:06:58.413Z,46.27
2022-12-19T02:09:27.827Z,42.97
2022-12-19T02:11:58.727Z,40.80
2022-12-19T02:14:29.205Z,49.37
2022-12-19T02:17:05.880Z,48.80
2022-12-19T02:19:58.985Z,37.07
2022-12-19T02:22:41.364Z,45.37
2022-12-19T02:25:31.419Z,43.53
2022-12-19T02:28:38.681Z,43.85
2022-12-19T02:31:17.871Z,44.83
2022-12-19T02:34:08.458Z,41.23
2022-12-19T02:36:46.829Z,41.10
2022-12-19T02:39:26.573Z,38.43
2022-12-19T02:41:59.574Z,38.77
2022-12-19T02:44:33.352Z,43.30
2022-12-19T02:47:05.459Z,42.63
2022-12-19T02:49:37.163Z,41.00
2022-12-19T02:52:12.908Z,41.67
2022-12-19T02:54:46.494Z,43.43
2022-12-19T02:57:24.410Z,37.63
2022-12-19T03:00:06.172Z,37.60
2022-12-19T03:02:51.191Z,38.90
2022-12-19T03:05:42.076Z,41.07
2022-12-19T03:08:24.378Z,36.33
2022-12-19T03:11:00.388Z,37.17
2022-12-19T03:13:34.217Z,39.20
2022-12-19T03:16:08.333Z,37.50
2022-12-19T03:18:38.717Z,42.93
2022-12-19T03:21:15.532Z,41.87
2022-12-19T03:23:53.181Z,43.77
2022-12-19T03:26:31.140Z,38.93
2022-12-19T03:29:07.812Z,39.90
2022-12-19T03:31:38.982Z,39.07
2022-12-19T03:34:16.838Z,39.77
2022-12-19T03:36:54.663Z,44.70
2022-12-19T03:39:29.896Z,41.47
2022-12-19T03:42:22.287Z,36.17
2022-12-19T03:44:54.034Z,35.50
2022-12-19T03:47:34.500Z,38.47
2022-12-19T03:50:07.081Z,38.17
2022-12-19T03:52:45.466Z,41.00
2022-12-19T03:55:24.424Z,40.27
2022-12-19T03:57:58.317Z,33.77
2022-12-19T04:00:29.740Z,43.67
2022-12-19T04:03:00.698Z,40.03
2022-12-19T04:05:30.087Z,37.27
2022-12-19T04:08:06.158Z,46.10
2022-12-19T04:10:48.001Z,46.25
2022-12-19T04:13:27.027Z,37.37
2022-12-19T04:16:06.942Z,42.97
2022-12-19T04:18:37.620Z,46.35
2022-12-19T04:21:15.119Z,31.83
2022-12-19T04:23:49.708Z,42.20
2022-12-19T04:26:31.070Z,27.07
2022-12-19T04:29:04.055Z,38.30
2022-12-19T04:31:33.022Z,46.53
2022-12-19T04:34:02.316Z,44.20
2022-12-19T04:36:32.473Z,40.40
2022-12-19T04:39:01.498Z,41.37
2022-12-19T04:41:31.065Z,46.10
2022-12-19T04:44:00.537Z,43.97
2022-12-19T04:46:32.821Z,37.13
2022-12-19T04:49:02.617Z,45.43
2022-12-19T04:51:31.752Z,40.27
2022-12-19T04:54:02.936Z,43.97
2022-12-19T04:56:31.763Z,40.63
2022-12-19T04:59:02.131Z,51.30
2022-12-19T05:01:31.545Z,44.77
2022-12-19T05:04:04.349Z,43.47
2022-12-19T05:06:34.035Z,59.15
2022-12-19T05:09:03.296Z,52.23
2022-12-19T05:11:32.823Z,48.63
2022-12-19T05:14:02.313Z,51.73
2022-12-19T05:16:31.504Z,52.30
2022-12-19T05:19:01.927Z,50.27
2022-12-19T05:21:31.005Z,59.57
2022-12-19T05:24:00.362Z,48.87
2022-12-19T05:26:29.314Z,54.00
2022-12-19T05:28:58.445Z,51.10
2022-12-19T05:31:27.545Z,46.23
2022-12-19T05:33:56.469Z,48.67
2022-12-19T05:36:32.127Z,45.33
2022-12-19T05:39:04.312Z,49.57
2022-12-19T05:41:33.376Z,58.03
2022-12-19T05:44:03.200Z,53.03
2022-12-19T05:46:32.396Z,51.77
2022-12-19T05:49:01.425Z,51.30
2022-12-19T05:51:30.859Z,49.80
2022-12-19T05:54:02.888Z,56.10
2022-12-19T05:56:31.918Z,52.33
2022-12-19T05:59:03.683Z,48.07
2022-12-19T06:01:37.068Z,51.03
2022-12-19T06:04:07.877Z,52.43
2022-12-19T06:06:38.707Z,59.30
2022-12-19T06:09:08.960Z,60.87
2022-12-19T06:11:38.143Z,58.23
2022-12-19T06:14:07.164Z,64.27
2022-12-19T06:16:39.624Z,59.10
2022-12-19T06:19:09.512Z,48.27
2022-12-19T06:21:45.449Z,55.67
2022-12-19T06:24:18.086Z,54.00
2022-12-19T06:26:47.360Z,55.95
2022-12-19T06:29:18.618Z,56.70
2022-12-19T06:31:47.461Z,51.90
2022-12-19T06:34:46.955Z,57.90
2022-12-19T06:37:09.195Z,53.50
2022-12-19T06:39:38.483Z,58.13
2022-12-19T06:42:24.886Z,58.23
2022-12-19T06:44:57.286Z,73.90
2022-12-19T06:47:28.545Z,65.40
2022-12-19T06:49:58.907Z,69.60
2022-12-19T06:52:27.666Z,57.50
2022-12-19T06:54:57.277Z,57.87
2022-12-19T06:57:26.894Z,62.83
2022-12-19T06:59:57.969Z,57.83
2022-12-19T07:02:31.392Z,58.70
2022-12-19T07:05:10.166Z,52.05
2022-12-19T07:07:40.752Z,58.57
2022-12-19T07:10:12.887Z,62.43
2022-12-19T07:12:41.838Z,56.13
2022-12-19T07:15:12.937Z,50.17
2022-12-19T07:17:42.179Z,63.17
2022-12-19T07:20:16.070Z,64.43
2022-12-19T07:22:45.894Z,65.87
2022-12-19T07:25:17.146Z,64.03
2022-12-19T07:27:47.745Z,62.77
2022-12-19T07:30:17.407Z,68.77
2022-12-19T07:32:46.484Z,62.20
2022-12-19T07:35:17.863Z,64.20
2022-12-19T07:37:53.840Z,57.17
2022-12-19T07:40:23.402Z,60.05
2022-12-19T07:42:52.406Z,55.53
2022-12-19T07:45:21.413Z,53.30
2022-12-19T07:47:53.414Z,58.80
2022-12-19T07:50:22.303Z,65.93
2022-12-19T07:52:51.229Z,58.40
2022-12-19T07:55:23.767Z,62.03
2022-12-19T07:57:55.841Z,66.60
2022-12-19T08:00:24.866Z,65.53
2022-12-19T08:02:53.683Z,60.87
2022-12-19T08:05:24.209Z,51.53
2022-12-19T08:07:56.476Z,69.07
2022-12-19T08:10:25.246Z,55.43
2022-12-19T08:12:54.001Z,58.77
2022-12-19T08:15:25.403Z,64.97
2022-12-19T08:17:56.027Z,52.27
2022-12-19T08:20:24.763Z,63.63
2022-12-19T08:22:53.580Z,65.83
2022-12-19T08:25:22.703Z,58.13
2022-12-19T08:27:51.476Z,57.40
2022-12-19T08:30:20.276Z,50.47
2022-12-19T08:32:49.097Z,58.00
2022-12-19T08:35:19.155Z,59.70
2022-12-19T08:37:48.303Z,53.87
2022-12-19T08:40:18.195Z,55.75
2022-12-19T08:42:47.085Z,56.23
2022-12-19T08:45:18.741Z,61.87
2022-12-19T08:47:47.897Z,53.43
2022-12-19T08:50:19.380Z,52.97
2022-12-19T08:52:48.178Z,56.13
2022-12-19T08:55:18.226Z,55.30
2022-12-19T08:57:49.475Z,49.33
2022-12-19T09:00:20.243Z,48.47
2022-12-19T09:02:55.214Z,52.20
2022-12-19T09:08:12.453Z,48.37
2022-12-19T09:10:47.659Z,54.30
2022-12-19T09:13:17.601Z,53.53
2022-12-19T09:15:48.762Z,48.83
2022-12-19T09:18:18.405Z,52.27
2022-12-19T09:20:53.097Z,55.30
2022-12-19T09:23:22.790Z,53.40
2022-12-19T09:25:51.989Z,46.53
2022-12-19T09:28:28.485Z,56.37
2022-12-19T09:30:58.546Z,55.63
2022-12-19T09:33:27.963Z,54.20
2022-12-19T09:35:57.468Z,46.87
2022-12-19T09:38:29.387Z,49.13
2022-12-19T09:44:16.184Z,51.27
2022-12-19T09:46:51.582Z,50.60
2022-12-19T09:49:24.405Z,54.20
2022-12-19T09:52:00.573Z,52.00
2022-12-19T09:54:35.564Z,49.90
2022-12-19T09:57:12.352Z,54.10
2022-12-19T09:59:50.135Z,52.10
2022-12-19T10:02:39.105Z,57.33
2022-12-19T10:05:46.623Z,53.27
2022-12-19T10:08:23.653Z,52.33
2022-12-19T10:12:39.193Z,49.17
2022-12-19T10:14:21.116Z,48.10
2022-12-19T10:17:23.815Z,44.67
2022-12-19T10:20:12.037Z,41.60
2022-12-19T10:22:52.710Z,56.93
2022-12-19T10:25:43.119Z,53.50
2022-12-19T10:28:32.683Z,55.80
2022-12-19T10:31:17.268Z,54.30
2022-12-19T10:33:57.826Z,47.80
2022-12-19T10:37:11.918Z,37.93
2022-12-19T10:39:29.172Z,41.73
2022-12-19T10:42:08.154Z,39.10
2022-12-19T10:44:40.297Z,39.47
2022-12-19T10:47:15.732Z,38.43
2022-12-19T10:49:44.816Z,43.00
2022-12-19T10:52:47.198Z,35.10
2022-12-19T10:55:47.522Z,37.13
2022-12-19T10:58:22.779Z,39.80
2022-12-19T11:01:16.877Z,37.90
2022-12-19T11:03:53.407Z,33.88
2022-12-19T11:06:44.119Z,34.60
2022-12-19T11:09:30.416Z,36.83
2022-12-19T11:13:32.266Z,35.70
2022-12-19T11:20:42.165Z,35.57
2022-12-19T11:27:29.564Z,36.17
2022-12-19T11:29:34.765Z,39.30
2022-12-19T11:29:37.684Z,36.53
2022-12-19T11:29:41.739Z,44.87
2022-12-19T11:32:44.859Z,42.40
2022-12-19T11:35:24.810Z,36.67
2022-12-19T11:38:07.777Z,35.90
2022-12-19T11:43:47.992Z,39.10
2022-12-19T11:49:11.297Z,35.97
2022-12-19T11:51:49.088Z,42.63
2022-12-19T11:54:26.859Z,43.97
2022-12-19T11:57:12.114Z,36.93
2022-12-19T11:59:42.988Z,38.30
2022-12-19T12:02:39.201Z,42.03
2022-12-19T12:05:44.378Z,42.43
2022-12-19T12:11:05.309Z,38.80
2022-12-19T12:19:18.836Z,42.80
2022-12-19T12:24:53.591Z,39.87
2022-12-19T12:31:04.227Z,45.92
2022-12-19T12:31:18.864Z,38.50
2022-12-19T12:31:47.164Z,38.77
2022-12-19T12:31:47.730Z,42.57
2022-12-19T12:32:04.001Z,38.70
2022-12-19T12:35:35.105Z,37.17
2022-12-19T12:39:35.775Z,42.97
2022-12-19T12:42:16.111Z,40.63
2022-12-19T12:44:51.127Z,44.00
2022-12-19T12:47:24.112Z,41.90
2022-12-19T12:50:16.735Z,42.40
2022-12-19T12:52:57.596Z,39.77
2022-12-19T12:55:29.972Z,44.43
2022-12-19T12:57:59.373Z,35.43
2022-12-19T13:00:30.426Z,39.97
2022-12-19T13:03:11.258Z,43.53
2022-12-19T13:06:03.272Z,38.63
2022-12-19T13:08:49.091Z,38.53
2022-12-19T13:12:06.125Z,38.73
2022-12-19T13:14:50.160Z,40.20
2022-12-19T13:17:47.414Z,37.58
2022-12-19T13:20:48.260Z,37.97
2022-12-19T13:23:34.148Z,38.83
2022-12-19T13:26:04.798Z,39.47
2022-12-19T13:28:42.978Z,40.27
2022-12-19T13:31:22.767Z,41.83
2022-12-19T13:34:19.224Z,38.17
2022-12-19T13:39:50.749Z,34.97
2022-12-19T13:40:13.575Z,40.00
2022-12-19T13:43:30.688Z,42.53
2022-12-19T13:46:02.136Z,44.83
2022-12-19T13:48:34.003Z,51.67
2022-12-19T13:51:10.934Z,45.90
2022-12-19T13:53:45.027Z,46.30
2022-12-19T13:56:19.008Z,42.70
2022-12-19T13:58:53.413Z,46.75
2022-12-19T14:01:29.476Z,42.30
2022-12-19T14:04:07.884Z,46.07
2022-12-19T14:06:43.162Z,51.30
2022-12-19T14:11:28.262Z,44.87
2022-12-19T14:13:48.157Z,46.83
2022-12-19T14:15:58.734Z,48.60
2022-12-19T14:18:45.039Z,45.80
2022-12-19T14:22:05.734Z,46.57
2022-12-19T14:24:25.925Z,46.50
2022-12-19T14:28:20.125Z,44.93
2022-12-19T14:30:30.464Z,48.33
2022-12-19T14:33:44.776Z,48.63
2022-12-19T14:36:09.964Z,55.87
2022-12-19T14:39:23.276Z,58.97
2022-12-19T14:42:13.651Z,49.60
2022-12-19T14:53:34.303Z,45.77
2022-12-19T14:53:51.781Z,56.73
2022-12-19T14:54:16.122Z,59.03
2022-12-19T14:57:25.327Z,50.93
2022-12-19T15:01:09.607Z,49.00
2022-12-19T15:03:23.718Z,57.80
2022-12-19T15:07:05.231Z,49.20
2022-12-19T15:10:58.596Z,46.57
2022-12-19T15:14:20.714Z,52.17
2022-12-19T15:15:34.269Z,48.53
2022-12-19T15:18:18.039Z,50.17
2022-12-19T15:21:00.987Z,52.98
2022-12-19T15:23:34.009Z,46.70
2022-12-19T15:26:08.470Z,46.03
2022-12-19T15:28:43.313Z,53.52
2022-12-19T15:31:36.635Z,55.67
2022-12-19T15:34:39.253Z,52.10
2022-12-19T15:37:10.275Z,53.10
2022-12-19T15:39:41.379Z,52.40
2022-12-19T15:42:22.619Z,51.90
2022-12-19T15:44:57.821Z,51.50
2022-12-19T15:47:32.177Z,56.57
2022-12-19T15:50:14.058Z,60.37
2022-12-19T15:55:35.496Z,52.08
2022-12-19T15:58:06.944Z,63.10
2022-12-19T16:00:37.424Z,60.60
2022-12-19T16:03:27.199Z,64.37
2022-12-19T16:05:57.153Z,63.90
2022-12-19T16:08:27.901Z,57.17
2022-12-19T16:11:07.109Z,54.57
2022-12-19T16:13:36.851Z,53.20
2022-12-19T16:16:15.767Z,55.27
2022-12-19T16:18:47.038Z,61.80
2022-12-19T16:21:33.702Z,58.17
2022-12-19T16:24:06.640Z,57.10
2022-12-19T16:26:40.261Z,67.57
2022-12-19T16:29:19.966Z,63.45
2022-12-19T16:31:49.276Z,61.37
2022-12-19T16:34:24.546Z,64.63
2022-12-19T16:36:54.350Z,61.63
2022-12-19T16:39:23.229Z,60.90
2022-12-19T16:41:52.232Z,57.57
2022-12-19T16:44:23.211Z,56.47
2022-12-19T16:46:54.773Z,59.07
2022-12-19T16:49:24.640Z,69.33
2022-12-19T16:51:54.342Z,64.10
2022-12-19T16:54:31.887Z,59.27
2022-12-19T16:57:06.076Z,58.57
2022-12-19T16:59:41.196Z,64.47
2022-12-19T17:02:46.506Z,62.23
2022-12-19T17:05:29.367Z,73.97
2022-12-19T17:08:10.518Z,64.70
2022-12-19T17:10:48.335Z,65.93
2022-12-19T17:13:19.274Z,64.07
2022-12-19T17:15:57.088Z,69.47
2022-12-19T17:18:34.820Z,65.23
2022-12-19T17:21:11.856Z,75.90
2022-12-19T17:23:48.355Z,74.53
2022-12-19T17:26:29.663Z,70.07
2022-12-19T17:28:58.519Z,67.10
2022-12-19T17:31:37.439Z,62.50
2022-12-19T17:34:26.530Z,66.70
2022-12-19T17:36:58.052Z,60.10
2022-12-19T17:39:29.815Z,69.37
2022-12-19T17:42:05.905Z,59.87
2022-12-19T17:44:38.150Z,63.27
2022-12-19T17:47:07.667Z,59.20
2022-12-19T17:49:36.842Z,64.23
2022-12-19T17:52:14.216Z,65.80
2022-12-19T17:54:44.837Z,64.17
2022-12-19T17:57:19.054Z,68.17
2022-12-19T17:59:49.919Z,72.65
2022-12-19T18:02:26.530Z,79.70
2022-12-19T18:05:01.154Z,60.87
2022-12-19T18:07:34.615Z,69.77
2022-12-19T18:10:14.384Z,63.57
2022-12-19T18:12:45.700Z,61.00
2022-12-19T18:15:15.803Z,67.43
2022-12-19T18:17:47.928Z,71.63
2022-12-19T18:20:31.206Z,74.00
2022-12-19T18:23:19.056Z,76.27
2022-12-19T18:25:54.823Z,72.80
2022-12-19T18:28:28.928Z,67.90
2022-12-19T18:31:07.122Z,79.70
2022-12-19T18:33:41.045Z,72.33
2022-12-19T18:36:36.358Z,60.97
2022-12-19T18:41:39.050Z,79.77
2022-12-19T18:44:08.126Z,74.70
2022-12-19T18:46:41.965Z,81.63
2022-12-19T18:49:14.618Z,79.17
2022-12-19T18:51:44.706Z,76.27
2022-12-19T18:54:19.854Z,84.70
2022-12-19T18:56:49.288Z,81.50
2022-12-19T18:59:21.969Z,79.50
2022-12-19T19:01:51.860Z,74.13
2022-12-19T19:04:24.507Z,74.73
2022-12-19T19:06:56.942Z,71.40
2022-12-19T19:09:28.810Z,70.83
2022-12-19T19:15:12.584Z,68.27
2022-12-19T19:17:43.714Z,69.10
2022-12-19T19:20:14.536Z,71.40
2022-12-19T19:22:44.568Z,74.10
2022-12-19T19:25:18.279Z,72.30
2022-12-19T19:27:48.073Z,65.57
2022-12-19T19:30:21.230Z,65.47
2022-12-19T19:32:57.063Z,65.87
2022-12-19T19:35:29.819Z,66.43
2022-12-19T19:38:15.789Z,72.53
2022-12-19T19:40:48.413Z,69.70
2022-12-19T19:43:20.487Z,68.50
2022-12-19T19:45:51.314Z,63.60
2022-12-19T19:48:21.636Z,70.00
2022-12-19T19:50:50.693Z,66.03
2022-12-19T19:53:21.318Z,73.83
2022-12-19T19:55:56.396Z,71.77
2022-12-19T19:58:25.497Z,66.60
2022-12-19T20:00:55.981Z,68.50
2022-12-19T20:03:26.502Z,77.13
2022-12-19T20:06:14.188Z,70.47
2022-12-19T20:08:43.338Z,69.73
2022-12-19T20:11:13.155Z,70.57
2022-12-19T20:13:45.688Z,68.23
2022-12-19T20:16:19.817Z,70.97
2022-12-19T20:18:50.239Z,68.47
2022-12-19T20:21:24.444Z,67.75
2022-12-19T20:23:55.970Z,72.43
2022-12-19T20:26:29.721Z,73.30
2022-12-19T20:28:58.644Z,69.50
2022-12-19T20:31:27.798Z,73.47
2022-12-19T20:33:56.748Z,78.57
2022-12-19T20:36:26.149Z,74.17
2022-12-19T20:38:55.568Z,66.97
2022-12-19T20:41:30.763Z,64.53
2022-12-19T20:44:03.563Z,73.53
2022-12-19T20:46:35.190Z,70.30
2022-12-19T20:49:04.409Z,66.17
2022-12-19T20:51:34.338Z,66.73
2022-12-19T20:54:04.653Z,63.43
2022-12-19T20:56:34.670Z,75.80
2022-12-19T20:59:09.902Z,68.37
2022-12-19T21:01:40.931Z,76.83
2022-12-19T21:04:10.313Z,66.13
2022-12-19T21:06:40.978Z,66.73
2022-12-19T21:09:14.324Z,62.20
2022-12-19T21:11:43.169Z,71.33
2022-12-19T21:14:12.233Z,62.73
2022-12-19T21:16:41.174Z,64.90
2022-12-19T21:19:11.289Z,66.67
2022-12-19T21:21:40.600Z,65.70
2022-12-19T21:24:10.417Z,62.23
2022-12-19T21:26:40.363Z,66.63
2022-12-19T21:29:11.364Z,67.90
2022-12-19T21:31:40.665Z,67.80
2022-12-19T21:34:12.467Z,67.50
2022-12-19T21:36:41.476Z,69.97
2022-12-19T21:39:12.585Z,63.13
2022-12-19T21:41:44.400Z,65.77
2022-12-19T21:44:13.143Z,65.47
2022-12-19T21:46:42.034Z,63.87
2022-12-19T21:49:14.372Z,66.07
2022-12-19T21:51:43.120Z,64.43
2022-12-19T21:54:12.094Z,70.13
2022-12-19T21:56:41.888Z,59.83
2022-12-19T21:59:14.023Z,64.97
2022-12-19T22:01:43.889Z,65.07
2022-12-19T22:04:15.381Z,63.03
2022-12-19T22:06:44.902Z,68.20
2022-12-19T22:09:15.429Z,65.70
2022-12-19T22:11:44.772Z,63.37
2022-12-19T22:14:15.472Z,68.10
2022-12-19T22:16:51.602Z,63.03
2022-12-19T22:19:22.475Z,61.90
2022-12-19T22:21:51.371Z,62.87
2022-12-19T22:24:24.323Z,63.53
2022-12-19T22:26:53.149Z,61.67
2022-12-19T22:29:25.621Z,62.70
2022-12-19T22:31:54.532Z,64.30
2022-12-19T22:34:23.596Z,62.70
2022-12-19T22:36:54.416Z,57.10
2022-12-19T22:39:24.094Z,67.50
2022-12-19T22:41:52.957Z,57.47
2022-12-19T22:44:26.920Z,64.90
2022-12-19T22:46:55.627Z,59.95
2022-12-19T22:49:24.556Z,62.40
2022-12-19T22:51:53.371Z,61.13
2022-12-19T22:54:24.311Z,62.00
2022-12-19T22:56:53.365Z,62.27
2022-12-19T22:59:22.303Z,56.67
2022-12-19T23:01:52.572Z,63.03
2022-12-19T23:04:21.817Z,60.43
2022-12-19T23:06:51.152Z,64.17
2022-12-19T23:09:20.998Z,59.80
2022-12-19T23:11:50.297Z,59.80
2022-12-19T23:14:20.395Z,60.20
2022-12-19T23:16:54.690Z,56.30
2022-12-19T23:19:23.656Z,59.75
2022-12-19T23:21:52.524Z,59.93
2022-12-19T23:24:22.085Z,64.50
2022-12-19T23:26:51.008Z,58.07
2022-12-19T23:29:22.122Z,56.23
2022-12-19T23:31:51.179Z,57.17
2022-12-19T23:34:21.345Z,51.83
2022-12-19T23:39:41.709Z,51.30
2022-12-19T23:42:10.563Z,58.50
2022-12-19T23:44:39.656Z,50.40
2022-12-19T23:47:08.372Z,51.73
2022-12-19T23:49:37.081Z,59.20
2022-12-19T23:52:06.235Z,55.73
2022-12-19T23:54:35.631Z,55.13
2022-12-19T23:57:04.487Z,54.23
2022-12-19T23:59:34.174Z,58.17
